sensor_id;sensor_type;location;lat;lon;timestamp;P1;durP1;ratioP1;P2;durP2;ratioP2
3297;SDS011;1661;53.572;10.174;2022-12-07T00:01:39;17.80;;;11.37;;
3297;SDS011;1661;53.572;10.174;2022-12-07T00:04:07;20.37;;;13.53;;
3297;SDS011;1661;53.572;10.174;2022-12-07T00:06:36;19.97;;;13.50;;
3297;SDS011;1661;53.572;10.174;2022-12-07T00:09:04;24.03;;;15.57;;
3297;SDS011;1661;53.572;10.174;2022-12-07T00:11:32;19.20;;;14.23;;
3297;SDS011;1661;53.572;10.174;2022-12-07T00:14:03;21.67;;;15.83;;
3297;SDS011;1661;53.572;10.174;2022-12-07T00:16:32;21.50;;;15.37;;
3297;SDS011;1661;53.572;10.174;2022-12-07T00:19:00;21.87;;;13.93;;
3297;SDS011;1661;53.572;10.174;2022-12-07T00:21:28;28.97;;;15.97;;
3297;SDS011;1661;53.572;10.174;2022-12-07T00:23:56;19.83;;;14.47;;
3297;SDS011;1661;53.572;10.174;2022-12-07T00:26:25;27.83;;;16.03;;
3297;SDS011;1661;53.572;10.174;2022-12-07T00:28:54;23.17;;;17.13;;
3297;SDS011;1661;53.572;10.174;2022-12-07T00:31:25;23.10;;;17.43;;
3297;SDS011;1661;53.572;10.174;2022-12-07T00:33:54;33.17;;;18.17;;
3297;SDS011;1661;53.572;10.174;2022-12-07T00:36:21;22.07;;;16.17;;
3297;SDS011;1661;53.572;10.174;2022-12-07T00:38:50;28.57;;;20.57;;
3297;SDS011;1661;53.572;10.174;2022-12-07T00:41:18;36.50;;;20.67;;
3297;SDS011;1661;53.572;10.174;2022-12-07T00:43:46;29.50;;;21.40;;
3297;SDS011;1661;53.572;10.174;2022-12-07T00:46:14;29.53;;;22.33;;
3297;SDS011;1661;53.572;10.174;2022-12-07T00:48:43;29.23;;;20.83;;
3297;SDS011;1661;53.572;10.174;2022-12-07T00:51:10;32.17;;;20.57;;
3297;SDS011;1661;53.572;10.174;2022-12-07T00:53:38;31.33;;;21.53;;
3297;SDS011;1661;53.572;10.174;2022-12-07T00:56:06;37.03;;;21.23;;
3297;SDS011;1661;53.572;10.174;2022-12-07T00:58:33;28.67;;;20.77;;
3297;SDS011;1661;53.572;10.174;2022-12-07T01:01:00;32.43;;;20.80;;
3297;SDS011;1661;53.572;10.174;2022-12-07T01:03:28;28.67;;;20.40;;
3297;SDS011;1661;53.572;10.174;2022-12-07T01:05:56;29.03;;;20.30;;
3297;SDS011;1661;53.572;10.174;2022-12-07T01:08:24;28.27;;;19.20;;
3297;SDS011;1661;53.572;10.174;2022-12-07T01:10:57;23.97;;;16.07;;
3297;SDS011;1661;53.572;10.174;2022-12-07T01:13:25;23.93;;;16.50;;
3297;SDS011;1661;53.572;10.174;2022-12-07T01:15:55;24.00;;;17.43;;
3297;SDS011;1661;53.572;10.174;2022-12-07T01:18:23;23.43;;;16.93;;
3297;SDS011;1661;53.572;10.174;2022-12-07T01:20:58;26.20;;;16.33;;
3297;SDS011;1661;53.572;10.174;2022-12-07T01:23:25;21.00;;;16.77;;
3297;SDS011;1661;53.572;10.174;2022-12-07T01:25:56;23.77;;;15.70;;
3297;SDS011;1661;53.572;10.174;2022-12-07T01:28:23;27.67;;;15.37;;
3297;SDS011;1661;53.572;10.174;2022-12-07T01:30:57;22.30;;;16.70;;
3297;SDS011;1661;53.572;10.174;2022-12-07T01:33:26;18.90;;;14.27;;
3297;SDS011;1661;53.572;10.174;2022-12-07T01:35:53;22.13;;;14.23;;
3297;SDS011;1661;53.572;10.174;2022-12-07T01:38:22;19.63;;;13.40;;
3297;SDS011;1661;53.572;10.174;2022-12-07T01:40:53;16.60;;;12.30;;
3297;SDS011;1661;53.572;10.174;2022-12-07T01:43:21;17.27;;;12.53;;
3297;SDS011;1661;53.572;10.174;2022-12-07T01:45:49;24.43;;;13.97;;
3297;SDS011;1661;53.572;10.174;2022-12-07T01:48:17;22.73;;;14.23;;
3297;SDS011;1661;53.572;10.174;2022-12-07T01:50:47;16.57;;;12.80;;
3297;SDS011;1661;53.572;10.174;2022-12-07T01:53:17;18.37;;;13.40;;
3297;SDS011;1661;53.572;10.174;2022-12-07T01:55:48;21.20;;;12.53;;
3297;SDS011;1661;53.572;10.174;2022-12-07T01:58:18;21.40;;;14.27;;
3297;SDS011;1661;53.572;10.174;2022-12-07T02:00:46;17.13;;;14.83;;
3297;SDS011;1661;53.572;10.174;2022-12-07T02:03:15;18.70;;;13.60;;
3297;SDS011;1661;53.572;10.174;2022-12-07T02:05:45;17.93;;;12.87;;
3297;SDS011;1661;53.572;10.174;2022-12-07T02:08:13;23.53;;;15.60;;
3297;SDS011;1661;53.572;10.174;2022-12-07T02:10:40;20.43;;;14.00;;
3297;SDS011;1661;53.572;10.174;2022-12-07T02:13:10;17.50;;;12.80;;
3297;SDS011;1661;53.572;10.174;2022-12-07T02:15:53;20.80;;;14.27;;
3297;SDS011;1661;53.572;10.174;2022-12-07T02:18:39;25.80;;;13.53;;
3297;SDS011;1661;53.572;10.174;2022-12-07T02:21:16;24.17;;;14.40;;
3297;SDS011;1661;53.572;10.174;2022-12-07T02:26:54;18.60;;;11.93;;
3297;SDS011;1661;53.572;10.174;2022-12-07T02:29:33;20.83;;;14.00;;
3297;SDS011;1661;53.572;10.174;2022-12-07T02:32:06;15.27;;;11.27;;
3297;SDS011;1661;53.572;10.174;2022-12-07T02:34:40;21.77;;;11.17;;
3297;SDS011;1661;53.572;10.174;2022-12-07T02:37:17;17.57;;;10.20;;
3297;SDS011;1661;53.572;10.174;2022-12-07T02:39:52;13.77;;;10.37;;
3297;SDS011;1661;53.572;10.174;2022-12-07T02:42:25;21.17;;;9.97;;
3297;SDS011;1661;53.572;10.174;2022-12-07T02:44:59;14.93;;;9.40;;
3297;SDS011;1661;53.572;10.174;2022-12-07T02:47:27;11.67;;;7.80;;
3297;SDS011;1661;53.572;10.174;2022-12-07T02:49:55;9.77;;;7.93;;
3297;SDS011;1661;53.572;10.174;2022-12-07T02:52:22;10.67;;;7.83;;
3297;SDS011;1661;53.572;10.174;2022-12-07T02:54:49;13.50;;;8.13;;
3297;SDS011;1661;53.572;10.174;2022-12-07T02:57:26;16.37;;;7.70;;
3297;SDS011;1661;53.572;10.174;2022-12-07T03:00:06;14.33;;;7.57;;
3297;SDS011;1661;53.572;10.174;2022-12-07T03:02:37;9.47;;;7.23;;
3297;SDS011;1661;53.572;10.174;2022-12-07T03:05:20;10.10;;;6.03;;
3297;SDS011;1661;53.572;10.174;2022-12-07T03:07:57;9.00;;;4.60;;
3297;SDS011;1661;53.572;10.174;2022-12-07T03:10:28;6.70;;;5.60;;
3297;SDS011;1661;53.572;10.174;2022-12-07T03:13:02;7.20;;;4.63;;
3297;SDS011;1661;53.572;10.174;2022-12-07T03:15:35;14.10;;;5.57;;
3297;SDS011;1661;53.572;10.174;2022-12-07T03:18:09;6.00;;;4.93;;
3297;SDS011;1661;53.572;10.174;2022-12-07T03:20:38;5.30;;;4.17;;
3297;SDS011;1661;53.572;10.174;2022-12-07T03:23:08;8.90;;;4.70;;
3297;SDS011;1661;53.572;10.174;2022-12-07T03:25:38;12.83;;;6.30;;
3297;SDS011;1661;53.572;10.174;2022-12-07T03:28:07;4.80;;;3.90;;
3297;SDS011;1661;53.572;10.174;2022-12-07T03:30:39;9.27;;;4.67;;
3297;SDS011;1661;53.572;10.174;2022-12-07T03:33:12;4.23;;;3.80;;
3297;SDS011;1661;53.572;10.174;2022-12-07T03:35:47;8.90;;;5.10;;
3297;SDS011;1661;53.572;10.174;2022-12-07T03:38:19;11.33;;;3.97;;
3297;SDS011;1661;53.572;10.174;2022-12-07T03:40:50;6.20;;;3.47;;
3297;SDS011;1661;53.572;10.174;2022-12-07T03:43:21;4.70;;;3.43;;
3297;SDS011;1661;53.572;10.174;2022-12-07T03:45:51;7.10;;;4.60;;
3297;SDS011;1661;53.572;10.174;2022-12-07T03:48:28;5.53;;;3.57;;
3297;SDS011;1661;53.572;10.174;2022-12-07T03:51:04;4.00;;;3.10;;
3297;SDS011;1661;53.572;10.174;2022-12-07T03:53:39;5.00;;;3.77;;
3297;SDS011;1661;53.572;10.174;2022-12-07T03:56:11;9.03;;;2.80;;
3297;SDS011;1661;53.572;10.174;2022-12-07T03:58:38;4.20;;;3.83;;
3297;SDS011;1661;53.572;10.174;2022-12-07T04:01:08;5.67;;;4.20;;
3297;SDS011;1661;53.572;10.174;2022-12-07T04:03:35;3.63;;;3.20;;
3297;SDS011;1661;53.572;10.174;2022-12-07T04:06:02;5.10;;;3.13;;
3297;SDS011;1661;53.572;10.174;2022-12-07T04:08:29;3.20;;;2.90;;
3297;SDS011;1661;53.572;10.174;2022-12-07T04:10:56;2.90;;;2.70;;
3297;SDS011;1661;53.572;10.174;2022-12-07T04:13:23;8.83;;;2.73;;
3297;SDS011;1661;53.572;10.174;2022-12-07T04:15:49;5.03;;;2.97;;
3297;SDS011;1661;53.572;10.174;2022-12-07T04:18:18;6.40;;;2.87;;
3297;SDS011;1661;53.572;10.174;2022-12-07T04:20:45;3.83;;;2.90;;
3297;SDS011;1661;53.572;10.174;2022-12-07T04:23:12;3.00;;;2.50;;
3297;SDS011;1661;53.572;10.174;2022-12-07T04:25:39;3.60;;;2.53;;
3297;SDS011;1661;53.572;10.174;2022-12-07T04:28:06;4.67;;;2.57;;
3297;SDS011;1661;53.572;10.174;2022-12-07T04:30:33;6.70;;;2.20;;
3297;SDS011;1661;53.572;10.174;2022-12-07T04:33:00;4.77;;;2.47;;
3297;SDS011;1661;53.572;10.174;2022-12-07T04:35:28;2.30;;;2.10;;
3297;SDS011;1661;53.572;10.174;2022-12-07T04:37:55;2.90;;;2.30;;
3297;SDS011;1661;53.572;10.174;2022-12-07T04:40:22;5.30;;;2.90;;
3297;SDS011;1661;53.572;10.174;2022-12-07T04:42:48;5.23;;;3.30;;
3297;SDS011;1661;53.572;10.174;2022-12-07T04:45:15;3.10;;;2.90;;
3297;SDS011;1661;53.572;10.174;2022-12-07T04:47:42;3.83;;;3.17;;
3297;SDS011;1661;53.572;10.174;2022-12-07T04:50:09;2.43;;;2.03;;
3297;SDS011;1661;53.572;10.174;2022-12-07T04:52:38;6.83;;;2.90;;
3297;SDS011;1661;53.572;10.174;2022-12-07T04:55:05;3.70;;;2.40;;
3297;SDS011;1661;53.572;10.174;2022-12-07T04:57:33;2.77;;;2.07;;
3297;SDS011;1661;53.572;10.174;2022-12-07T05:00:05;6.30;;;2.97;;
3297;SDS011;1661;53.572;10.174;2022-12-07T05:02:33;2.60;;;2.40;;
3297;SDS011;1661;53.572;10.174;2022-12-07T05:05:00;11.10;;;2.60;;
3297;SDS011;1661;53.572;10.174;2022-12-07T05:07:27;2.93;;;2.63;;
3297;SDS011;1661;53.572;10.174;2022-12-07T05:09:55;4.63;;;4.03;;
3297;SDS011;1661;53.572;10.174;2022-12-07T05:12:22;3.43;;;3.13;;
3297;SDS011;1661;53.572;10.174;2022-12-07T05:14:49;5.57;;;3.57;;
3297;SDS011;1661;53.572;10.174;2022-12-07T05:17:15;7.00;;;6.40;;
3297;SDS011;1661;53.572;10.174;2022-12-07T05:19:42;7.50;;;5.37;;
3297;SDS011;1661;53.572;10.174;2022-12-07T05:22:09;5.70;;;5.10;;
3297;SDS011;1661;53.572;10.174;2022-12-07T05:24:36;4.50;;;3.93;;
3297;SDS011;1661;53.572;10.174;2022-12-07T05:27:04;3.30;;;2.93;;
3297;SDS011;1661;53.572;10.174;2022-12-07T05:29:31;3.90;;;3.47;;
3297;SDS011;1661;53.572;10.174;2022-12-07T05:31:58;4.07;;;3.20;;
3297;SDS011;1661;53.572;10.174;2022-12-07T05:34:24;3.10;;;2.60;;
3297;SDS011;1661;53.572;10.174;2022-12-07T05:36:51;4.25;;;3.85;;
3297;SDS011;1661;53.572;10.174;2022-12-07T05:39:18;32.57;;;18.13;;
3297;SDS011;1661;53.572;10.174;2022-12-07T05:41:45;11.03;;;6.00;;
3297;SDS011;1661;53.572;10.174;2022-12-07T05:44:30;5.10;;;4.23;;
3297;SDS011;1661;53.572;10.174;2022-12-07T05:46:57;4.40;;;3.20;;
3297;SDS011;1661;53.572;10.174;2022-12-07T05:49:24;4.40;;;3.40;;
3297;SDS011;1661;53.572;10.174;2022-12-07T05:51:51;4.10;;;3.70;;
3297;SDS011;1661;53.572;10.174;2022-12-07T05:54:18;4.23;;;3.40;;
3297;SDS011;1661;53.572;10.174;2022-12-07T05:56:45;4.30;;;4.00;;
3297;SDS011;1661;53.572;10.174;2022-12-07T05:59:12;8.47;;;4.93;;
3297;SDS011;1661;53.572;10.174;2022-12-07T06:01:48;6.20;;;4.10;;
3297;SDS011;1661;53.572;10.174;2022-12-07T06:04:15;6.30;;;5.50;;
3297;SDS011;1661;53.572;10.174;2022-12-07T06:06:42;4.45;;;4.05;;
3297;SDS011;1661;53.572;10.174;2022-12-07T06:09:09;4.07;;;3.67;;
3297;SDS011;1661;53.572;10.174;2022-12-07T06:11:38;5.50;;;4.23;;
3297;SDS011;1661;53.572;10.174;2022-12-07T06:14:22;4.95;;;4.00;;
3297;SDS011;1661;53.572;10.174;2022-12-07T06:16:51;5.95;;;3.53;;
3297;SDS011;1661;53.572;10.174;2022-12-07T06:19:18;4.93;;;4.32;;
3297;SDS011;1661;53.572;10.174;2022-12-07T06:21:45;5.97;;;5.25;;
3297;SDS011;1661;53.572;10.174;2022-12-07T06:24:12;11.43;;;4.88;;
3297;SDS011;1661;53.572;10.174;2022-12-07T06:26:40;7.20;;;5.25;;
3297;SDS011;1661;53.572;10.174;2022-12-07T06:29:08;6.18;;;5.18;;
3297;SDS011;1661;53.572;10.174;2022-12-07T06:31:35;7.93;;;6.18;;
3297;SDS011;1661;53.572;10.174;2022-12-07T06:34:05;8.55;;;6.50;;
3297;SDS011;1661;53.572;10.174;2022-12-07T06:36:33;9.67;;;7.17;;
3297;SDS011;1661;53.572;10.174;2022-12-07T06:39:00;9.82;;;5.63;;
3297;SDS011;1661;53.572;10.174;2022-12-07T06:41:28;7.20;;;5.70;;
3297;SDS011;1661;53.572;10.174;2022-12-07T06:43:55;4.78;;;4.38;;
3297;SDS011;1661;53.572;10.174;2022-12-07T06:46:22;4.35;;;3.95;;
3297;SDS011;1661;53.572;10.174;2022-12-07T06:48:49;5.15;;;4.55;;
3297;SDS011;1661;53.572;10.174;2022-12-07T06:51:17;5.28;;;3.88;;
3297;SDS011;1661;53.572;10.174;2022-12-07T06:53:45;5.50;;;5.00;;
3297;SDS011;1661;53.572;10.174;2022-12-07T06:56:11;9.48;;;4.93;;
3297;SDS011;1661;53.572;10.174;2022-12-07T06:58:38;10.27;;;4.80;;
3297;SDS011;1661;53.572;10.174;2022-12-07T07:01:08;4.57;;;3.67;;
3297;SDS011;1661;53.572;10.174;2022-12-07T07:03:35;11.70;;;4.17;;
3297;SDS011;1661;53.572;10.174;2022-12-07T07:06:02;10.07;;;5.03;;
3297;SDS011;1661;53.572;10.174;2022-12-07T07:08:30;6.90;;;4.53;;
3297;SDS011;1661;53.572;10.174;2022-12-07T07:10:57;6.97;;;3.80;;
3297;SDS011;1661;53.572;10.174;2022-12-07T07:13:24;6.07;;;4.50;;
3297;SDS011;1661;53.572;10.174;2022-12-07T07:15:51;6.97;;;4.60;;
3297;SDS011;1661;53.572;10.174;2022-12-07T07:18:17;5.03;;;4.20;;
3297;SDS011;1661;53.572;10.174;2022-12-07T07:20:44;4.67;;;3.73;;
3297;SDS011;1661;53.572;10.174;2022-12-07T07:23:11;4.63;;;4.20;;
3297;SDS011;1661;53.572;10.174;2022-12-07T07:25:39;8.53;;;4.50;;
3297;SDS011;1661;53.572;10.174;2022-12-07T07:28:06;5.33;;;4.00;;
3297;SDS011;1661;53.572;10.174;2022-12-07T07:30:33;12.10;;;4.30;;
3297;SDS011;1661;53.572;10.174;2022-12-07T07:33:00;3.80;;;3.50;;
3297;SDS011;1661;53.572;10.174;2022-12-07T07:35:28;4.80;;;3.63;;
3297;SDS011;1661;53.572;10.174;2022-12-07T07:37:56;13.53;;;4.37;;
3297;SDS011;1661;53.572;10.174;2022-12-07T07:40:24;7.23;;;4.13;;
3297;SDS011;1661;53.572;10.174;2022-12-07T07:42:53;6.13;;;2.87;;
3297;SDS011;1661;53.572;10.174;2022-12-07T07:45:21;5.20;;;4.07;;
3297;SDS011;1661;53.572;10.174;2022-12-07T07:47:49;9.47;;;3.53;;
3297;SDS011;1661;53.572;10.174;2022-12-07T07:50:17;4.10;;;2.33;;
3297;SDS011;1661;53.572;10.174;2022-12-07T07:52:44;3.47;;;3.17;;
3297;SDS011;1661;53.572;10.174;2022-12-07T07:55:11;5.47;;;2.80;;
3297;SDS011;1661;53.572;10.174;2022-12-07T07:57:39;2.30;;;2.10;;
3297;SDS011;1661;53.572;10.174;2022-12-07T08:00:09;5.77;;;3.40;;
3297;SDS011;1661;53.572;10.174;2022-12-07T08:02:38;5.23;;;3.17;;
3297;SDS011;1661;53.572;10.174;2022-12-07T08:05:06;3.73;;;2.57;;
3297;SDS011;1661;53.572;10.174;2022-12-07T08:07:33;5.00;;;3.40;;
3297;SDS011;1661;53.572;10.174;2022-12-07T08:10:00;7.80;;;2.97;;
3297;SDS011;1661;53.572;10.174;2022-12-07T08:12:27;4.13;;;2.37;;
3297;SDS011;1661;53.572;10.174;2022-12-07T08:14:54;6.67;;;2.80;;
3297;SDS011;1661;53.572;10.174;2022-12-07T08:17:22;4.33;;;3.03;;
3297;SDS011;1661;53.572;10.174;2022-12-07T08:19:49;3.37;;;2.30;;
3297;SDS011;1661;53.572;10.174;2022-12-07T08:22:16;6.60;;;2.83;;
3297;SDS011;1661;53.572;10.174;2022-12-07T08:24:45;21.87;;;3.50;;
3297;SDS011;1661;53.572;10.174;2022-12-07T08:27:11;5.13;;;2.97;;
3297;SDS011;1661;53.572;10.174;2022-12-07T08:29:38;4.90;;;3.57;;
3297;SDS011;1661;53.572;10.174;2022-12-07T08:32:05;2.90;;;2.20;;
3297;SDS011;1661;53.572;10.174;2022-12-07T08:34:34;4.60;;;2.90;;
3297;SDS011;1661;53.572;10.174;2022-12-07T08:37:02;6.50;;;3.53;;
3297;SDS011;1661;53.572;10.174;2022-12-07T08:39:28;7.20;;;2.55;;
3297;SDS011;1661;53.572;10.174;2022-12-07T08:41:55;14.23;;;3.20;;
3297;SDS011;1661;53.572;10.174;2022-12-07T08:44:22;6.20;;;2.90;;
3297;SDS011;1661;53.572;10.174;2022-12-07T08:46:49;3.63;;;2.40;;
3297;SDS011;1661;53.572;10.174;2022-12-07T08:49:21;3.93;;;2.37;;
3297;SDS011;1661;53.572;10.174;2022-12-07T08:51:51;9.10;;;2.60;;
3297;SDS011;1661;53.572;10.174;2022-12-07T08:54:18;7.00;;;2.10;;
3297;SDS011;1661;53.572;10.174;2022-12-07T08:56:46;8.73;;;3.00;;
3297;SDS011;1661;53.572;10.174;2022-12-07T08:59:14;8.30;;;2.63;;
3297;SDS011;1661;53.572;10.174;2022-12-07T09:01:43;4.77;;;2.77;;
3297;SDS011;1661;53.572;10.174;2022-12-07T09:04:10;5.13;;;3.43;;
3297;SDS011;1661;53.572;10.174;2022-12-07T09:06:37;3.53;;;2.20;;
3297;SDS011;1661;53.572;10.174;2022-12-07T09:09:06;8.43;;;2.97;;
3297;SDS011;1661;53.572;10.174;2022-12-07T09:11:34;4.13;;;3.10;;
3297;SDS011;1661;53.572;10.174;2022-12-07T09:14:01;4.33;;;3.00;;
3297;SDS011;1661;53.572;10.174;2022-12-07T09:16:28;5.87;;;3.20;;
3297;SDS011;1661;53.572;10.174;2022-12-07T09:18:54;12.50;;;2.50;;
3297;SDS011;1661;53.572;10.174;2022-12-07T09:21:21;6.03;;;2.80;;
3297;SDS011;1661;53.572;10.174;2022-12-07T09:23:48;5.33;;;2.07;;
3297;SDS011;1661;53.572;10.174;2022-12-07T09:26:16;3.43;;;2.60;;
3297;SDS011;1661;53.572;10.174;2022-12-07T09:28:43;6.13;;;3.27;;
3297;SDS011;1661;53.572;10.174;2022-12-07T09:31:10;3.47;;;2.20;;
3297;SDS011;1661;53.572;10.174;2022-12-07T09:33:36;9.23;;;3.00;;
3297;SDS011;1661;53.572;10.174;2022-12-07T09:36:03;8.33;;;2.30;;
3297;SDS011;1661;53.572;10.174;2022-12-07T09:38:31;6.17;;;2.40;;
3297;SDS011;1661;53.572;10.174;2022-12-07T09:40:58;2.57;;;1.90;;
3297;SDS011;1661;53.572;10.174;2022-12-07T09:43:33;9.53;;;2.80;;
3297;SDS011;1661;53.572;10.174;2022-12-07T09:46:01;6.47;;;2.23;;
3297;SDS011;1661;53.572;10.174;2022-12-07T09:48:30;7.40;;;2.60;;
3297;SDS011;1661;53.572;10.174;2022-12-07T09:51:00;3.87;;;3.53;;
3297;SDS011;1661;53.572;10.174;2022-12-07T09:53:29;8.20;;;3.00;;
3297;SDS011;1661;53.572;10.174;2022-12-07T09:55:59;8.50;;;2.20;;
3297;SDS011;1661;53.572;10.174;2022-12-07T09:58:27;4.60;;;2.03;;
3297;SDS011;1661;53.572;10.174;2022-12-07T10:00:58;2.47;;;2.00;;
3297;SDS011;1661;53.572;10.174;2022-12-07T10:03:27;6.80;;;3.23;;
3297;SDS011;1661;53.572;10.174;2022-12-07T10:05:54;13.33;;;2.50;;
3297;SDS011;1661;53.572;10.174;2022-12-07T10:08:22;8.73;;;2.80;;
3297;SDS011;1661;53.572;10.174;2022-12-07T10:10:52;4.80;;;2.77;;
3297;SDS011;1661;53.572;10.174;2022-12-07T10:13:21;10.07;;;3.60;;
3297;SDS011;1661;53.572;10.174;2022-12-07T10:16:01;6.20;;;2.77;;
3297;SDS011;1661;53.572;10.174;2022-12-07T10:18:31;8.33;;;3.30;;
3297;SDS011;1661;53.572;10.174;2022-12-07T10:21:02;16.63;;;6.97;;
3297;SDS011;1661;53.572;10.174;2022-12-07T10:23:33;4.63;;;2.60;;
3297;SDS011;1661;53.572;10.174;2022-12-07T10:26:09;18.40;;;3.37;;
3297;SDS011;1661;53.572;10.174;2022-12-07T10:28:46;4.40;;;2.80;;
3297;SDS011;1661;53.572;10.174;2022-12-07T10:31:16;7.30;;;2.90;;
3297;SDS011;1661;53.572;10.174;2022-12-07T10:33:49;4.83;;;2.30;;
3297;SDS011;1661;53.572;10.174;2022-12-07T10:36:19;6.43;;;2.73;;
3297;SDS011;1661;53.572;10.174;2022-12-07T10:38:49;9.33;;;2.50;;
3297;SDS011;1661;53.572;10.174;2022-12-07T10:41:17;9.03;;;2.60;;
3297;SDS011;1661;53.572;10.174;2022-12-07T10:43:48;17.27;;;2.90;;
3297;SDS011;1661;53.572;10.174;2022-12-07T10:52:32;6.17;;;2.27;;
3297;SDS011;1661;53.572;10.174;2022-12-07T10:55:18;8.93;;;2.10;;
3297;SDS011;1661;53.572;10.174;2022-12-07T10:57:59;10.23;;;2.13;;
3297;SDS011;1661;53.572;10.174;2022-12-07T11:00:41;9.53;;;2.80;;
3297;SDS011;1661;53.572;10.174;2022-12-07T11:03:21;9.27;;;3.03;;
3297;SDS011;1661;53.572;10.174;2022-12-07T11:06:07;7.20;;;3.30;;
3297;SDS011;1661;53.572;10.174;2022-12-07T11:08:46;8.77;;;1.63;;
3297;SDS011;1661;53.572;10.174;2022-12-07T11:11:25;14.00;;;4.27;;
3297;SDS011;1661;53.572;10.174;2022-12-07T11:14:00;12.40;;;3.23;;
3297;SDS011;1661;53.572;10.174;2022-12-07T11:16:38;6.10;;;2.37;;
3297;SDS011;1661;53.572;10.174;2022-12-07T11:22:20;7.33;;;2.20;;
3297;SDS011;1661;53.572;10.174;2022-12-07T11:24:54;6.90;;;2.13;;
3297;SDS011;1661;53.572;10.174;2022-12-07T11:27:30;9.13;;;2.37;;
3297;SDS011;1661;53.572;10.174;2022-12-07T11:30:10;7.00;;;2.90;;
3297;SDS011;1661;53.572;10.174;2022-12-07T11:32:53;13.60;;;2.17;;
3297;SDS011;1661;53.572;10.174;2022-12-07T11:35:31;7.30;;;2.07;;
3297;SDS011;1661;53.572;10.174;2022-12-07T11:38:10;4.67;;;1.90;;
3297;SDS011;1661;53.572;10.174;2022-12-07T11:40:40;6.40;;;2.10;;
3297;SDS011;1661;53.572;10.174;2022-12-07T11:43:13;9.90;;;2.70;;
3297;SDS011;1661;53.572;10.174;2022-12-07T11:45:46;9.80;;;2.60;;
3297;SDS011;1661;53.572;10.174;2022-12-07T11:48:20;13.37;;;2.27;;
3297;SDS011;1661;53.572;10.174;2022-12-07T11:50:51;4.53;;;2.20;;
3297;SDS011;1661;53.572;10.174;2022-12-07T11:53:22;5.10;;;2.70;;
3297;SDS011;1661;53.572;10.174;2022-12-07T11:55:54;13.23;;;2.93;;
3297;SDS011;1661;53.572;10.174;2022-12-07T11:58:40;7.53;;;2.30;;
3297;SDS011;1661;53.572;10.174;2022-12-07T12:01:20;8.50;;;1.97;;
3297;SDS011;1661;53.572;10.174;2022-12-07T12:03:56;9.40;;;2.80;;
3297;SDS011;1661;53.572;10.174;2022-12-07T12:06:27;11.77;;;1.90;;
3297;SDS011;1661;53.572;10.174;2022-12-07T12:08:56;5.63;;;2.67;;
3297;SDS011;1661;53.572;10.174;2022-12-07T12:11:32;6.73;;;2.30;;
3297;SDS011;1661;53.572;10.174;2022-12-07T12:14:19;22.87;;;2.83;;
3297;SDS011;1661;53.572;10.174;2022-12-07T12:17:11;5.73;;;2.00;;
3297;SDS011;1661;53.572;10.174;2022-12-07T12:19:58;11.20;;;3.53;;
3297;SDS011;1661;53.572;10.174;2022-12-07T12:22:32;4.13;;;2.40;;
3297;SDS011;1661;53.572;10.174;2022-12-07T12:25:05;10.97;;;2.40;;
3297;SDS011;1661;53.572;10.174;2022-12-07T12:27:34;3.73;;;2.13;;
3297;SDS011;1661;53.572;10.174;2022-12-07T12:30:05;11.73;;;3.30;;
3297;SDS011;1661;53.572;10.174;2022-12-07T12:32:36;7.37;;;2.90;;
3297;SDS011;1661;53.572;10.174;2022-12-07T12:35:21;5.07;;;1.80;;
3297;SDS011;1661;53.572;10.174;2022-12-07T12:37:53;7.90;;;2.17;;
3297;SDS011;1661;53.572;10.174;2022-12-07T12:40:41;12.80;;;2.40;;
3297;SDS011;1661;53.572;10.174;2022-12-07T12:55:21;10.23;;;2.27;;
3297;SDS011;1661;53.572;10.174;2022-12-07T13:04:16;11.80;;;1.90;;
3297;SDS011;1661;53.572;10.174;2022-12-07T13:06:47;3.47;;;1.80;;
3297;SDS011;1661;53.572;10.174;2022-12-07T13:09:19;6.27;;;2.70;;
3297;SDS011;1661;53.572;10.174;2022-12-07T13:11:49;10.80;;;2.83;;
3297;SDS011;1661;53.572;10.174;2022-12-07T13:14:53;7.20;;;2.00;;
3297;SDS011;1661;53.572;10.174;2022-12-07T13:23:16;5.83;;;1.83;;
3297;SDS011;1661;53.572;10.174;2022-12-07T13:26:12;8.70;;;3.87;;
3297;SDS011;1661;53.572;10.174;2022-12-07T13:28:42;8.23;;;1.80;;
3297;SDS011;1661;53.572;10.174;2022-12-07T13:34:01;7.87;;;1.60;;
3297;SDS011;1661;53.572;10.174;2022-12-07T13:36:30;6.50;;;1.70;;
3297;SDS011;1661;53.572;10.174;2022-12-07T13:39:10;6.57;;;1.70;;
3297;SDS011;1661;53.572;10.174;2022-12-07T13:41:43;7.10;;;2.00;;
3297;SDS011;1661;53.572;10.174;2022-12-07T13:44:12;14.70;;;2.67;;
3297;SDS011;1661;53.572;10.174;2022-12-07T13:46:43;5.33;;;1.40;;
3297;SDS011;1661;53.572;10.174;2022-12-07T13:49:19;2.50;;;1.30;;
3297;SDS011;1661;53.572;10.174;2022-12-07T13:51:47;7.77;;;2.80;;
3297;SDS011;1661;53.572;10.174;2022-12-07T13:54:14;6.73;;;1.93;;
3297;SDS011;1661;53.572;10.174;2022-12-07T13:56:42;8.93;;;1.93;;
3297;SDS011;1661;53.572;10.174;2022-12-07T13:59:18;4.93;;;1.83;;
3297;SDS011;1661;53.572;10.174;2022-12-07T14:01:48;11.10;;;1.40;;
3297;SDS011;1661;53.572;10.174;2022-12-07T14:04:17;5.80;;;1.97;;
3297;SDS011;1661;53.572;10.174;2022-12-07T14:06:49;2.80;;;1.33;;
3297;SDS011;1661;53.572;10.174;2022-12-07T14:09:17;3.83;;;1.40;;
3297;SDS011;1661;53.572;10.174;2022-12-07T14:11:47;4.70;;;1.20;;
3297;SDS011;1661;53.572;10.174;2022-12-07T14:14:16;5.27;;;1.40;;
3297;SDS011;1661;53.572;10.174;2022-12-07T14:16:56;4.03;;;1.70;;
3297;SDS011;1661;53.572;10.174;2022-12-07T14:19:40;16.93;;;1.63;;
3297;SDS011;1661;53.572;10.174;2022-12-07T14:22:17;3.57;;;1.43;;
3297;SDS011;1661;53.572;10.174;2022-12-07T14:24:47;4.57;;;2.10;;
3297;SDS011;1661;53.572;10.174;2022-12-07T14:27:18;5.33;;;1.70;;
3297;SDS011;1661;53.572;10.174;2022-12-07T14:29:45;2.47;;;1.23;;
3297;SDS011;1661;53.572;10.174;2022-12-07T14:32:18;4.20;;;1.50;;
3297;SDS011;1661;53.572;10.174;2022-12-07T14:34:57;4.27;;;1.77;;
3297;SDS011;1661;53.572;10.174;2022-12-07T14:37:26;5.83;;;2.40;;
3297;SDS011;1661;53.572;10.174;2022-12-07T14:39:54;4.40;;;1.43;;
3297;SDS011;1661;53.572;10.174;2022-12-07T14:42:22;2.47;;;1.20;;
3297;SDS011;1661;53.572;10.174;2022-12-07T14:44:53;5.67;;;1.77;;
3297;SDS011;1661;53.572;10.174;2022-12-07T14:47:21;4.63;;;1.63;;
3297;SDS011;1661;53.572;10.174;2022-12-07T14:49:48;3.93;;;2.37;;
3297;SDS011;1661;53.572;10.174;2022-12-07T14:52:16;4.10;;;1.90;;
3297;SDS011;1661;53.572;10.174;2022-12-07T14:54:45;5.60;;;1.77;;
3297;SDS011;1661;53.572;10.174;2022-12-07T14:57:12;8.20;;;2.10;;
3297;SDS011;1661;53.572;10.174;2022-12-07T14:59:39;1.30;;;1.00;;
3297;SDS011;1661;53.572;10.174;2022-12-07T15:02:06;4.90;;;1.40;;
3297;SDS011;1661;53.572;10.174;2022-12-07T15:04:37;3.90;;;1.13;;
3297;SDS011;1661;53.572;10.174;2022-12-07T15:07:04;3.00;;;1.73;;
3297;SDS011;1661;53.572;10.174;2022-12-07T15:09:35;1.63;;;1.37;;
3297;SDS011;1661;53.572;10.174;2022-12-07T15:12:02;6.40;;;2.43;;
3297;SDS011;1661;53.572;10.174;2022-12-07T15:14:29;7.73;;;1.67;;
3297;SDS011;1661;53.572;10.174;2022-12-07T15:16:55;6.20;;;2.00;;
3297;SDS011;1661;53.572;10.174;2022-12-07T15:19:23;4.00;;;1.53;;
3297;SDS011;1661;53.572;10.174;2022-12-07T15:21:52;3.10;;;1.57;;
3297;SDS011;1661;53.572;10.174;2022-12-07T15:24:19;3.67;;;1.20;;
3297;SDS011;1661;53.572;10.174;2022-12-07T15:26:46;6.10;;;2.03;;
3297;SDS011;1661;53.572;10.174;2022-12-07T15:29:13;3.20;;;1.20;;
3297;SDS011;1661;53.572;10.174;2022-12-07T15:31:42;6.03;;;1.87;;
3297;SDS011;1661;53.572;10.174;2022-12-07T15:34:09;2.83;;;1.47;;
3297;SDS011;1661;53.572;10.174;2022-12-07T15:36:36;6.30;;;1.17;;
3297;SDS011;1661;53.572;10.174;2022-12-07T15:39:04;6.30;;;1.13;;
3297;SDS011;1661;53.572;10.174;2022-12-07T15:41:31;5.80;;;2.00;;
3297;SDS011;1661;53.572;10.174;2022-12-07T15:43:58;1.87;;;1.00;;
3297;SDS011;1661;53.572;10.174;2022-12-07T15:46:42;1.77;;;1.20;;
3297;SDS011;1661;53.572;10.174;2022-12-07T15:49:10;3.30;;;1.43;;
3297;SDS011;1661;53.572;10.174;2022-12-07T15:51:39;2.63;;;1.50;;
3297;SDS011;1661;53.572;10.174;2022-12-07T15:54:13;1.57;;;1.47;;